Time;durP1;ratioP1;P1;durP2;ratioP2;P2;SDS_P1;SDS_P2;PMS_P1;PMS_P2;Temp;Humidity;BMP_temperature;BMP_pressure;BME280_temperature;BME280_humidity;BME280_pressure;Samples;Min_cycle;Max_cycle;Signal;HPM_P1;HPM_P2
2022/11/05 00:18:26;;;;;;;28.20;15.60;;;;;;;9.87;81.08;99282.66;125119;1302;98364;-81
2022/11/05 00:28:17;;;;;;;29.10;17.10;;;;;;;9.82;81.15;99286.52;125049;1296;98103;-82
2022/11/05 00:31:23;;;;;;;31.00;17.20;;;;;;;9.83;81.01;99288.41;125707;1296;98137;-83
2022/11/05 00:34:28;;;;;;;28.70;18.20;;;;;;;9.82;81.13;99283.84;125335;1304;98478;-80
2022/11/05 00:37:34;;;;;;;28.10;18.50;;;;;;;9.80;81.21;99289.74;125187;1297;99324;-79
2022/11/05 00:40:39;;;;;;;28.20;17.90;;;;;;;9.74;81.30;99284.73;125189;1305;99185;-80
2022/11/05 00:50:27;;;;;;;28.00;17.30;;;;;;;9.70;81.49;99295.08;125217;1299;98078;-80
2022/11/05 00:53:33;;;;;;;28.40;17.50;;;;;;;9.69;81.77;99294.27;125323;1297;98105;-81
2022/11/05 00:56:38;;;;;;;27.90;16.90;;;;;;;9.73;81.70;99301.11;125198;1299;99061;-80
2022/11/05 00:59:44;;;;;;;26.00;17.00;;;;;;;9.73;81.67;99307.85;125085;1296;98881;-79
2022/11/05 01:02:49;;;;;;;27.30;17.00;;;;;;;9.75;81.41;99307.11;125080;1305;98714;-79
2022/11/05 01:05:57;;;;;;;22.50;14.30;;;;;;;9.76;81.73;99310.94;125293;1302;99074;-80
2022/11/05 01:09:02;;;;;;;27.20;14.50;;;;;;;9.75;81.67;99310.96;125201;1296;98077;-80
2022/11/05 01:12:08;;;;;;;27.30;17.00;;;;;;;9.75;81.70;99307.65;125244;1298;98125;-82
2022/11/05 01:15:14;;;;;;;24.40;15.80;;;;;;;9.77;81.87;99304.00;125224;1297;98798;-79
2022/11/05 01:18:21;;;;;;;26.20;16.10;;;;;;;9.80;81.73;99302.73;125266;1297;99214;-79
2022/11/05 01:21:26;;;;;;;27.60;17.10;;;;;;;9.78;81.59;99304.36;125986;1297;98769;-80
2022/11/05 01:24:32;;;;;;;26.60;16.60;;;;;;;9.79;81.96;99311.95;126336;1296;98027;-80
2022/11/05 01:27:38;;;;;;;29.10;16.20;;;;;;;9.77;81.78;99324.95;125415;1296;99190;-80
2022/11/05 01:30:44;;;;;;;23.60;13.90;;;;;;;9.72;81.62;99324.44;125576;1305;98001;-80
2022/11/05 01:33:50;;;;;;;20.10;13.10;;;;;;;9.70;81.71;99326.43;125768;1297;98446;-79
2022/11/05 01:36:55;;;;;;;27.30;15.80;;;;;;;9.70;82.07;99324.50;125314;1299;99135;-80
2022/11/05 01:40:00;;;;;;;27.00;16.30;;;;;;;9.73;81.91;99320.60;125252;1306;99053;-80
2022/11/05 01:43:14;;;;;;;26.30;15.40;;;;;;;9.75;81.94;99319.03;125214;1304;98039;-80
2022/11/05 01:46:26;;;;;;;22.00;14.70;;;;;;;9.75;81.96;99325.59;125142;1296;98057;-80
2022/11/05 01:49:34;;;;;;;24.80;17.10;;;;;;;9.75;82.09;99330.45;125196;1306;99206;-80
2022/11/05 01:52:39;;;;;;;22.60;13.60;;;;;;;9.75;82.12;99330.55;125083;1312;98131;-80
2022/11/05 01:55:49;;;;;;;25.00;13.60;;;;;;;9.74;82.14;99326.37;125207;1299;98067;-81
2022/11/05 01:59:00;;;;;;;27.20;15.80;;;;;;;9.74;82.15;99332.26;125254;1303;98039;-81
2022/11/05 02:02:07;;;;;;;26.80;16.10;;;;;;;9.73;82.24;99329.48;125256;1297;98571;-81
2022/11/05 02:05:14;;;;;;;25.20;16.50;;;;;;;9.75;82.31;99326.26;125091;1299;99133;-82
2022/11/05 02:08:32;;;;;;;25.30;15.90;;;;;;;9.75;82.14;99321.96;125198;1297;98007;-81
2022/11/05 02:11:37;;;;;;;26.60;16.70;;;;;;;9.72;82.23;99325.83;125105;1296;98055;-81
2022/11/05 02:14:43;;;;;;;25.40;16.90;;;;;;;9.70;82.42;99332.89;125294;1306;99164;-81
2022/11/05 02:18:02;;;;;;;23.40;14.80;;;;;;;9.65;82.45;99322.35;125250;1297;99093;-81
2022/11/05 02:21:33;;;;;;;21.60;13.60;;;;;;;9.63;82.31;99315.12;125226;1303;98098;-82
2022/11/05 02:25:18;;;;;;;27.70;16.00;;;;;;;9.62;82.54;99315.42;125333;1302;98801;-81
2022/11/05 02:28:46;;;;;;;26.20;16.40;;;;;;;9.65;82.55;99321.18;124997;1295;98030;-80
2022/11/05 02:32:02;;;;;;;24.80;16.60;;;;;;;9.65;82.28;99319.23;125482;1304;99119;-81
2022/11/05 02:35:22;;;;;;;26.60;16.50;;;;;;;9.65;82.30;99319.69;125379;1296;98026;-81
2022/11/05 02:38:39;;;;;;;28.20;16.60;;;;;;;9.65;82.49;99332.36;125277;1297;98100;-81
2022/11/05 02:41:54;;;;;;;24.20;14.50;;;;;;;9.64;82.46;99337.80;125423;1296;98041;-81
2022/11/05 02:45:07;;;;;;;23.30;14.10;;;;;;;9.62;82.78;99343.83;125120;1303;99169;-81
2022/11/05 02:48:21;;;;;;;26.00;16.00;;;;;;;9.64;83.00;99352.89;125779;1303;98017;-82
2022/11/05 02:51:31;;;;;;;24.40;15.90;;;;;;;9.68;82.65;99357.04;125317;1303;99307;-81
2022/11/05 02:54:42;;;;;;;25.60;16.10;;;;;;;9.72;82.70;99353.94;125352;1293;98765;-80
2022/11/05 02:57:48;;;;;;;27.40;17.40;;;;;;;9.70;82.19;99357.54;125371;1302;99157;-79
2022/11/05 03:00:54;;;;;;;28.20;16.60;;;;;;;9.68;82.56;99356.64;125371;1293;98469;-80
2022/11/05 03:04:03;;;;;;;30.80;16.90;;;;;;;9.64;82.83;99346.63;125203;1296;98441;-80
2022/11/05 03:07:40;;;;;;;22.80;14.80;;;;;;;9.58;82.86;99357.38;125344;1304;98116;-81
2022/11/05 03:10:51;;;;;;;23.90;13.90;;;;;;;9.55;82.72;99350.99;125095;1309;98020;-81
2022/11/05 03:14:04;;;;;;;29.60;19.00;;;;;;;9.53;82.75;99349.77;125375;1297;98025;-81
2022/11/05 03:17:19;;;;;;;27.30;16.30;;;;;;;9.56;82.73;99350.20;125462;1296;98180;-81
2022/11/05 03:20:30;;;;;;;26.50;16.40;;;;;;;9.57;82.92;99352.96;125291;1303;99077;-82
2022/11/05 03:23:44;;;;;;;24.90;16.00;;;;;;;9.55;82.78;99359.36;125280;1303;99063;-81
2022/11/05 03:26:55;;;;;;;25.80;16.40;;;;;;;9.52;83.04;99363.23;125308;1296;98984;-82
2022/11/05 03:30:05;;;;;;;26.60;17.20;;;;;;;9.49;82.64;99363.46;125302;1304;99120;-82
2022/11/05 03:33:16;;;;;;;21.70;14.30;;;;;;;9.44;82.90;99366.95;125406;1316;98090;-82
2022/11/05 03:36:27;;;;;;;23.70;13.20;;;;;;;9.41;82.83;99376.11;126329;1295;99070;-82
2022/11/05 03:39:36;;;;;;;22.40;15.10;;;;;;;9.41;83.18;99379.63;125685;1303;99059;-81
2022/11/05 03:42:47;;;;;;;25.50;16.20;;;;;;;9.43;82.99;99371.81;125892;1303;98340;-80
2022/11/05 03:45:56;;;;;;;24.60;16.40;;;;;;;9.45;83.08;99380.84;125395;1302;98092;-80
2022/11/05 03:49:05;;;;;;;25.30;16.60;;;;;;;9.47;83.18;99379.61;125223;1303;98121;-80
2022/11/05 03:52:16;;;;;;;27.20;16.40;;;;;;;9.47;83.02;99394.72;125281;1289;98797;-80
2022/11/05 03:55:26;;;;;;;25.40;14.90;;;;;;;9.44;83.26;99398.52;125390;1296;98250;-80
2022/11/05 03:58:33;;;;;;;23.40;12.90;;;;;;;9.43;83.02;99398.48;125341;1296;99084;-81
2022/11/05 04:01:39;;;;;;;26.90;16.80;;;;;;;9.43;83.12;99402.88;125357;1302;98143;-82
2022/11/05 04:04:45;;;;;;;25.20;16.50;;;;;;;9.46;83.27;99404.53;125443;1296;99199;-82
2022/11/05 04:14:37;;;;;;;25.00;17.30;;;;;;;9.49;83.23;99424.70;125273;1301;98026;-82
2022/11/05 04:17:42;;;;;;;24.00;15.00;;;;;;;9.47;83.41;99422.38;125266;1296;98086;-81
2022/11/05 04:24:11;;;;;;;25.60;15.80;;;;;;;9.43;83.68;99429.50;125286;1305;98080;-81
2022/11/05 04:27:17;;;;;;;27.80;17.40;;;;;;;9.48;83.33;99431.48;125245;1302;98810;-81
2022/11/05 04:30:22;;;;;;;26.90;16.90;;;;;;;9.52;83.53;99439.25;125313;1296;99231;-79
2022/11/05 04:33:28;;;;;;;25.90;17.00;;;;;;;9.52;83.68;99458.95;125282;1294;98082;-78
2022/11/05 04:36:33;;;;;;;29.70;17.50;;;;;;;9.53;83.58;99458.96;125233;1297;98016;-80
2022/11/05 04:39:38;;;;;;;26.80;16.20;;;;;;;9.51;83.52;99450.87;125189;1297;98083;-80
2022/11/05 04:42:44;;;;;;;23.50;14.10;;;;;;;9.51;83.62;99446.85;125276;1297;99143;-80
2022/11/05 04:45:49;;;;;;;26.40;16.70;;;;;;;9.52;83.83;99441.65;125241;1303;98034;-83
2022/11/05 04:48:55;;;;;;;24.70;17.20;;;;;;;9.56;83.69;99445.21;125180;1302;98113;-80
2022/11/05 04:52:00;;;;;;;24.70;15.70;;;;;;;9.58;83.73;99449.41;125238;1309;99196;-80
2022/11/05 04:55:07;;;;;;;26.30;18.40;;;;;;;9.60;83.88;99456.13;125204;1312;98058;-79
2022/11/05 04:58:12;;;;;;;26.20;17.30;;;;;;;9.59;84.04;99465.69;125204;1303;98795;-79
2022/11/05 05:01:19;;;;;;;26.50;14.70;;;;;;;9.56;83.94;99474.98;125348;1297;98016;-78
2022/11/05 05:04:25;;;;;;;23.60;13.20;;;;;;;9.54;84.01;99469.38;125333;1294;98414;-78
2022/11/05 05:07:31;;;;;;;26.10;17.10;;;;;;;9.55;84.01;99472.08;125391;1293;99278;-78
2022/11/05 05:10:37;;;;;;;30.00;17.10;;;;;;;9.58;83.95;99477.25;125407;1297;98517;-79
2022/11/05 05:13:42;;;;;;;29.10;17.50;;;;;;;9.62;84.03;99478.27;125262;1295;98342;-78
2022/11/05 05:16:47;;;;;;;26.90;17.60;;;;;;;9.67;84.14;99484.90;125234;1299;99161;-79
2022/11/05 05:23:16;;;;;;;25.90;15.10;;;;;;;9.68;84.06;99491.52;125205;1302;98036;-79
2022/11/05 05:26:21;;;;;;;21.20;13.90;;;;;;;9.67;84.31;99491.56;125326;1296;98005;-79
2022/11/05 05:29:27;;;;;;;27.60;16.80;;;;;;;9.69;84.49;99490.33;125336;1296;99075;-80
2022/11/05 05:32:32;;;;;;;24.20;16.60;;;;;;;9.72;84.38;99489.66;125550;1303;97994;-81
2022/11/05 05:35:38;;;;;;;25.90;17.20;;;;;;;9.75;84.28;99495.73;126132;1303;98164;-81
2022/11/05 05:38:43;;;;;;;27.40;17.60;;;;;;;9.76;84.54;99501.42;126516;1296;97997;-80
2022/11/05 05:41:49;;;;;;;26.80;17.40;;;;;;;9.75;84.12;99497.13;126535;1302;97941;-80
2022/11/05 05:44:54;;;;;;;23.90;15.30;;;;;;;9.73;84.31;99499.45;125980;1303;98065;-82
2022/11/05 05:47:59;;;;;;;25.50;14.40;;;;;;;9.70;84.41;99493.89;125544;1301;97998;-82
2022/11/05 05:51:07;;;;;;;25.70;16.90;;;;;;;9.67;84.64;99492.29;125299;1309;99117;-82
2022/11/05 05:54:13;;;;;;;24.60;16.60;;;;;;;9.67;84.53;99496.73;125378;1295;99165;-82
2022/11/05 05:57:18;;;;;;;25.90;16.70;;;;;;;9.70;84.56;99507.23;125412;1313;98080;-82
2022/11/05 06:00:24;;;;;;;24.80;17.10;;;;;;;9.73;84.62;99517.17;125333;1314;98880;-82
2022/11/05 06:03:29;;;;;;;25.60;16.20;;;;;;;9.73;84.65;99519.30;125664;1303;98035;-82
2022/11/05 06:06:35;;;;;;;25.60;15.50;;;;;;;9.74;84.87;99520.48;125444;1303;99217;-79
2022/11/05 06:09:40;;;;;;;22.90;13.70;;;;;;;9.75;85.08;99516.77;125208;1302;98120;-81
2022/11/05 06:12:46;;;;;;;24.40;15.10;;;;;;;9.79;85.24;99515.30;125379;1297;98951;-80
2022/11/05 06:15:51;;;;;;;25.80;16.80;;;;;;;9.85;84.96;99520.48;125622;1303;98399;-80
2022/11/05 06:18:56;;;;;;;22.90;16.20;;;;;;;9.90;85.22;99535.26;125532;1296;99268;-81
2022/11/05 06:22:02;;;;;;;30.80;17.10;;;;;;;9.96;85.13;99540.33;126415;1309;98020;-81
2022/11/05 06:25:09;;;;;;;25.40;17.30;;;;;;;9.99;85.10;99539.96;125690;1304;98482;-82
2022/11/05 06:28:14;;;;;;;22.60;14.50;;;;;;;10.02;85.07;99547.41;125404;1293;98708;-76
2022/11/05 06:31:20;;;;;;;22.60;13.00;;;;;;;10.06;85.31;99552.55;125248;1295;98090;-76
2022/11/05 06:34:25;;;;;;;23.90;15.30;;;;;;;10.10;85.30;99552.12;125526;1297;98687;-79
2022/11/05 06:37:33;;;;;;;22.60;15.00;;;;;;;10.16;85.20;99563.51;125290;1296;98034;-76
2022/11/05 06:40:38;;;;;;;25.10;16.60;;;;;;;10.22;85.31;99564.80;125335;1297;99061;-76
2022/11/05 06:43:44;;;;;;;24.60;16.00;;;;;;;10.28;85.00;99567.10;125291;1297;99084;-77
2022/11/05 06:46:50;;;;;;;23.90;16.80;;;;;;;10.31;85.17;99564.27;125343;1302;99018;-76
2022/11/05 06:49:56;;;;;;;21.70;14.20;;;;;;;10.30;85.16;99566.68;125318;1309;99201;-75
2022/11/05 06:53:03;;;;;;;22.50;13.10;;;;;;;10.33;85.31;99572.83;125190;1298;99208;-76
2022/11/05 06:56:10;;;;;;;23.30;15.60;;;;;;;10.37;85.57;99572.70;125195;1297;98804;-76
2022/11/05 06:59:15;;;;;;;23.10;15.60;;;;;;;10.44;85.33;99569.74;125134;1303;99169;-75
2022/11/05 07:02:21;;;;;;;22.80;16.00;;;;;;;10.54;85.46;99569.56;125393;1304;99281;-76
2022/11/05 07:05:27;;;;;;;23.10;16.00;;;;;;;10.64;85.69;99571.98;125317;1297;98420;-75
2022/11/05 07:08:34;;;;;;;24.90;16.20;;;;;;;10.74;85.50;99577.35;125254;1302;98710;-74
2022/11/05 07:11:39;;;;;;;22.50;15.10;;;;;;;10.78;85.27;99583.45;125302;1304;99327;-75
2022/11/05 07:14:45;;;;;;;22.40;13.80;;;;;;;10.81;85.38;99584.20;125147;1303;98103;-75
2022/11/05 07:17:50;;;;;;;21.40;14.70;;;;;;;10.86;85.83;99592.70;125239;1309;99100;-75
2022/11/05 07:20:56;;;;;;;22.90;15.60;;;;;;;10.90;85.61;99599.34;125277;1304;99274;-75
2022/11/05 07:24:02;;;;;;;22.90;15.80;;;;;;;10.98;85.64;99602.93;125329;1303;98043;-76
2022/11/05 07:27:07;;;;;;;22.30;14.80;;;;;;;11.06;85.21;99604.17;125083;1302;98031;-75
2022/11/05 07:30:13;;;;;;;22.60;15.30;;;;;;;11.11;85.51;99609.70;125089;1305;98010;-76
2022/11/05 07:33:18;;;;;;;22.70;14.20;;;;;;;11.13;85.45;99614.40;125251;1297;99188;-75
2022/11/05 07:36:24;;;;;;;19.30;10.60;;;;;;;11.15;85.67;99621.34;125135;1293;98786;-73
2022/11/05 07:39:29;;;;;;;21.70;15.20;;;;;;;11.15;85.77;99628.08;125196;1300;98094;-73
2022/11/05 07:42:35;;;;;;;21.50;15.90;;;;;;;11.18;85.54;99631.88;125164;1295;99198;-72
2022/11/05 07:45:41;;;;;;;23.40;15.90;;;;;;;11.21;85.41;99638.95;125193;1296;98778;-72
2022/11/05 07:48:46;;;;;;;24.90;17.30;;;;;;;11.27;85.57;99647.06;125188;1303;98122;-71
2022/11/05 07:51:52;;;;;;;27.20;20.10;;;;;;;11.31;85.62;99648.75;125138;1297;98106;-72
2022/11/05 07:54:57;;;;;;;30.10;19.90;;;;;;;11.32;85.87;99646.23;125116;1316;98032;-72
2022/11/05 07:58:04;;;;;;;23.40;16.50;;;;;;;11.36;85.78;99652.73;125126;1302;98684;-72
2022/11/05 08:01:09;;;;;;;24.00;17.10;;;;;;;11.42;85.88;99657.30;125159;1306;99166;-72
2022/11/05 08:04:14;;;;;;;26.70;18.20;;;;;;;11.47;85.83;99657.85;125173;1300;98769;-72
2022/11/05 08:07:20;;;;;;;26.10;18.70;;;;;;;11.49;85.78;99660.57;125088;1297;99272;-72
2022/11/05 08:10:26;;;;;;;26.90;18.80;;;;;;;11.53;85.74;99661.19;125201;1302;98002;-79
2022/11/05 08:13:32;;;;;;;26.50;18.70;;;;;;;11.55;85.81;99655.59;125157;1312;99069;-80
2022/11/05 08:16:38;;;;;;;26.10;17.10;;;;;;;11.52;85.96;99656.02;125182;1309;98671;-77
2022/11/05 08:19:43;;;;;;;23.90;15.70;;;;;;;11.52;86.01;99652.41;125047;1313;98124;-79
2022/11/05 08:22:49;;;;;;;26.70;17.90;;;;;;;11.53;85.63;99652.88;124850;1309;98039;-78
2022/11/05 08:25:55;;;;;;;25.70;18.00;;;;;;;11.56;86.02;99658.07;124865;1307;98204;-77
2022/11/05 08:29:00;;;;;;;25.80;16.20;;;;;;;11.58;86.03;99659.27;124898;1296;99090;-77
2022/11/05 08:32:06;;;;;;;24.20;16.70;;;;;;;11.58;86.02;99662.02;125023;1296;98039;-78
2022/11/05 08:35:11;;;;;;;26.90;18.00;;;;;;;11.58;85.83;99662.89;124948;1305;99273;-76
2022/11/05 08:38:19;;;;;;;24.40;14.90;;;;;;;11.57;85.97;99667.11;124887;1296;98925;-80
2022/11/05 08:41:24;;;;;;;98.00;46.40;;;;;;;11.56;86.12;99675.59;125033;1302;98109;-80
2022/11/05 08:44:30;;;;;;;33.50;20.00;;;;;;;11.56;86.05;99681.46;125055;1309;98042;-82
2022/11/05 08:47:35;;;;;;;24.70;16.40;;;;;;;11.57;86.06;99694.53;125118;1308;98787;-83
2022/11/05 08:50:41;;;;;;;24.50;15.00;;;;;;;11.58;86.14;99697.20;125204;1305;99170;-80
2022/11/05 08:53:47;;;;;;;25.30;15.80;;;;;;;11.58;86.18;99692.83;125172;1305;98035;-81
2022/11/05 08:56:52;;;;;;;36.90;20.30;;;;;;;11.57;86.42;99696.95;125087;1301;98010;-80
2022/11/05 08:59:57;;;;;;;49.90;21.80;;;;;;;11.54;86.21;99702.02;125116;1302;99056;-81
2022/11/05 09:03:05;;;;;;;36.30;19.80;;;;;;;11.52;86.50;99703.36;125199;1302;98049;-82
2022/11/05 09:06:11;;;;;;;70.00;29.90;;;;;;;11.53;86.60;99699.36;124949;1309;99170;-79
2022/11/05 09:09:16;;;;;;;225.80;76.80;;;;;;;11.56;86.54;99705.27;125214;1304;98594;-80
2022/11/05 09:12:21;;;;;;;79.40;33.80;;;;;;;11.58;86.69;99709.23;125328;1297;98039;-81
2022/11/05 09:15:27;;;;;;;235.70;106.30;;;;;;;11.60;86.58;99713.50;124933;1297;98888;-79
2022/11/05 09:18:33;;;;;;;131.30;55.00;;;;;;;11.60;86.66;99716.73;126173;1304;98702;-79
2022/11/05 09:21:38;;;;;;;65.50;31.10;;;;;;;11.60;86.93;99717.80;125323;1307;98135;-79
2022/11/05 09:24:44;;;;;;;79.50;34.90;;;;;;;11.61;86.92;99724.85;125253;1312;98814;-79
2022/11/05 09:27:50;;;;;;;37.10;21.40;;;;;;;11.62;87.40;99731.06;125334;1312;98783;-79
2022/11/05 09:30:55;;;;;;;31.70;20.80;;;;;;;11.57;87.80;99740.35;125166;1309;99286;-79
2022/11/05 09:34:00;;;;;;;37.10;23.60;;;;;;;11.42;88.30;99746.72;125135;1303;98007;-81
2022/11/05 09:37:06;;;;;;;58.10;28.10;;;;;;;11.31;88.04;99753.82;125047;1309;98721;-81
2022/11/05 09:40:18;;;;;;;37.90;21.40;;;;;;;11.26;88.37;99751.63;125288;1307;99045;-79
2022/11/05 09:43:27;;;;;;;40.90;23.00;;;;;;;11.23;88.78;99744.16;125343;1309;99277;-81
2022/11/05 09:46:41;;;;;;;48.80;27.50;;;;;;;11.14;89.55;99742.10;125352;1289;98117;-81
2022/11/05 09:49:49;;;;;;;42.00;25.50;;;;;;;11.11;89.23;99761.14;125257;1306;98718;-80
2022/11/05 09:52:55;;;;;;;44.80;23.10;;;;;;;11.08;89.14;99766.67;125353;1306;98805;-80
2022/11/05 09:56:02;;;;;;;39.40;22.30;;;;;;;11.07;89.86;99776.59;125407;1297;98110;-80
2022/11/05 09:59:16;;;;;;;41.50;24.90;;;;;;;11.03;89.26;99785.33;125290;1306;98033;-81
2022/11/05 10:02:26;;;;;;;42.70;23.80;;;;;;;11.00;89.42;99787.96;125256;1309;98804;-78
2022/11/05 10:05:33;;;;;;;38.60;22.80;;;;;;;11.01;89.52;99791.27;125096;1299;98003;-80
2022/11/05 10:08:44;;;;;;;36.90;21.10;;;;;;;11.03;89.52;99790.90;125178;1306;98040;-80
2022/11/05 10:11:55;;;;;;;37.20;19.20;;;;;;;11.08;89.20;99795.02;125059;1319;98181;-78
2022/11/05 10:15:10;;;;;;;39.40;22.80;;;;;;;11.15;89.25;99802.35;125190;1296;99219;-80
2022/11/05 10:18:21;;;;;;;35.40;21.60;;;;;;;11.20;89.08;99809.09;125314;1313;98036;-76
2022/11/05 10:21:26;;;;;;;39.40;22.60;;;;;;;11.23;89.05;99810.40;125150;1307;98387;-80
2022/11/05 10:24:32;;;;;;;36.40;22.10;;;;;;;11.25;89.02;99807.52;125090;1296;98016;-78
2022/11/05 10:27:39;;;;;;;35.30;18.90;;;;;;;11.26;88.84;99814.13;124890;1289;98090;-72
2022/11/05 10:30:46;;;;;;;36.90;19.80;;;;;;;11.24;88.70;99811.52;125170;1296;99218;-72
2022/11/05 10:33:55;;;;;;;38.70;21.90;;;;;;;11.17;89.41;99811.40;125034;1306;98032;-72
2022/11/05 10:37:01;;;;;;;36.10;21.80;;;;;;;11.08;89.34;99815.06;124979;1305;99189;-73
2022/11/05 10:40:16;;;;;;;35.90;21.80;;;;;;;11.09;89.30;99821.21;125013;1305;98068;-74
2022/11/05 10:43:30;;;;;;;34.70;22.50;;;;;;;11.10;89.48;99823.21;125156;1288;99190;-74
2022/11/05 10:46:40;;;;;;;39.20;21.00;;;;;;;11.06;89.44;99830.63;125024;1306;98109;-73
2022/11/05 10:49:57;;;;;;;39.70;21.70;;;;;;;10.97;89.67;99832.55;125033;1306;98014;-73
2022/11/05 10:53:09;;;;;;;34.50;20.80;;;;;;;10.94;89.69;99836.50;124920;1312;98040;-73
2022/11/05 10:56:29;;;;;;;36.20;21.10;;;;;;;10.99;89.80;99835.80;124851;1302;98021;-73
2022/11/05 10:59:35;;;;;;;34.10;20.10;;;;;;;11.06;89.41;99839.70;125085;1296;98034;-73
2022/11/05 11:02:41;;;;;;;36.40;21.00;;;;;;;11.10;89.57;99845.14;125148;1304;99064;-73
2022/11/05 11:05:47;;;;;;;30.90;17.50;;;;;;;11.07;89.35;99849.95;125077;1297;98021;-73
2022/11/05 11:08:55;;;;;;;34.80;20.90;;;;;;;11.08;89.58;99851.77;124908;1289;98776;-74
2022/11/05 11:12:15;;;;;;;33.80;20.60;;;;;;;11.08;89.39;99845.44;125038;1297;99126;-73
2022/11/05 11:15:27;;;;;;;35.50;20.10;;;;;;;11.10;89.30;99856.86;125176;1297;98890;-74
2022/11/05 11:18:40;;;;;;;37.00;21.60;;;;;;;11.09;89.08;99860.48;125054;1297;99543;-73
2022/11/05 11:21:46;;;;;;;38.00;22.10;;;;;;;11.04;89.04;99861.62;125163;1296;98089;-74
2022/11/05 11:24:53;;;;;;;36.00;19.60;;;;;;;10.93;89.49;99863.83;125094;1297;99057;-73
2022/11/05 11:28:04;;;;;;;36.10;21.40;;;;;;;10.91;89.58;99864.78;125004;1299;98071;-73
2022/11/05 11:31:13;;;;;;;38.60;22.60;;;;;;;10.87;89.37;99868.17;124904;1306;98021;-75
2022/11/05 11:34:27;;;;;;;41.00;23.50;;;;;;;10.83;89.99;99868.46;124936;1302;99195;-73
2022/11/05 11:37:36;;;;;;;36.10;21.70;;;;;;;10.71;90.10;99870.65;125027;1296;98061;-73
2022/11/05 11:40:42;;;;;;;32.00;19.40;;;;;;;10.58;90.36;99876.27;125046;1302;98141;-73
2022/11/05 11:43:48;;;;;;;32.90;19.20;;;;;;;10.52;90.33;99877.30;125166;1305;98661;-72
2022/11/05 11:46:56;;;;;;;32.00;19.30;;;;;;;10.49;90.43;99879.20;125239;1303;98665;-74
2022/11/05 11:50:03;;;;;;;31.30;19.70;;;;;;;10.51;90.28;99874.33;125080;1297;99211;-72
2022/11/05 11:53:29;;;;;;;32.00;20.00;;;;;;;10.64;90.28;99874.08;124830;1298;98037;-74
2022/11/05 11:56:46;;;;;;;28.10;16.70;;;;;;;10.78;89.78;99871.16;125105;1296;98664;-73
2022/11/05 11:59:52;;;;;;;28.20;16.80;;;;;;;10.90;89.54;99876.02;124974;1296;98103;-72
2022/11/05 12:03:20;;;;;;;29.00;19.30;;;;;;;10.98;89.64;99879.14;124987;1290;98485;-73
2022/11/05 12:06:33;;;;;;;30.30;19.80;;;;;;;10.96;89.44;99878.73;124928;1302;99156;-73
2022/11/05 12:09:55;;;;;;;29.10;18.40;;;;;;;10.96;89.46;99878.43;124990;1290;98698;-71
2022/11/05 12:13:23;;;;;;;28.80;18.80;;;;;;;11.00;89.66;99881.77;125216;1296;99175;-71
2022/11/05 12:16:44;;;;;;;28.50;16.50;;;;;;;11.05;89.52;99883.79;125003;1297;98116;-71
2022/11/05 12:20:10;;;;;;;27.00;15.60;;;;;;;11.07;89.30;99884.76;125013;1296;99167;-76
2022/11/05 12:23:29;;;;;;;27.20;17.40;;;;;;;11.08;89.27;99889.05;125074;1296;99164;-72
2022/11/05 12:26:46;;;;;;;34.20;21.80;;;;;;;11.06;89.19;99891.98;125227;1289;99181;-72
2022/11/05 12:30:01;;;;;;;30.70;20.30;;;;;;;11.04;89.29;99887.29;125326;1296;99146;-72
2022/11/05 12:33:18;;;;;;;31.90;22.00;;;;;;;11.03;89.32;99892.16;125082;1296;98028;-75
2022/11/05 12:36:41;;;;;;;36.90;24.20;;;;;;;11.00;89.38;99888.52;125196;1296;98028;-73
2022/11/05 12:40:01;;;;;;;32.70;19.10;;;;;;;10.91;89.43;99892.64;125056;1299;98667;-73
2022/11/05 12:43:20;;;;;;;28.00;19.80;;;;;;;10.87;89.68;99898.61;125080;1296;99131;-74
2022/11/05 12:46:34;;;;;;;50.60;39.50;;;;;;;10.91;89.82;99896.11;125118;1297;98040;-72
2022/11/05 12:49:58;;;;;;;105.00;56.50;;;;;;;10.89;90.04;99894.64;125255;1297;99043;-77
2022/11/05 12:53:24;;;;;;;51.90;36.40;;;;;;;10.87;89.40;99894.36;125105;1296;98807;-79
2022/11/05 12:56:36;;;;;;;31.50;20.20;;;;;;;10.81;89.50;99896.80;125082;1299;98698;-72
2022/11/05 12:59:50;;;;;;;25.70;18.50;;;;;;;10.74;89.65;99898.05;125158;1302;98037;-72
2022/11/05 13:03:06;;;;;;;28.10;21.10;;;;;;;10.78;89.89;99908.73;125197;1296;99054;-72
2022/11/05 13:06:16;;;;;;;28.40;20.90;;;;;;;10.84;89.56;99911.25;125056;1297;98410;-76
2022/11/05 13:09:28;;;;;;;30.30;21.90;;;;;;;10.88;89.92;99912.59;125151;1305;98092;-73
2022/11/05 13:12:35;;;;;;;;;;;;;;;10.87;89.93;99919.70;125184;1305;98099;-72
2022/11/05 13:15:49;;;;;;;26.30;19.70;;;;;;;10.85;89.73;99921.79;125142;1296;99280;-75
2022/11/05 13:18:59;;;;;;;27.70;19.00;;;;;;;10.85;89.93;99929.60;125297;1306;98009;-78
2022/11/05 13:22:23;;;;;;;22.10;15.50;;;;;;;10.84;89.79;99933.66;125094;1295;98597;-75
2022/11/05 13:25:31;;;;;;;29.20;21.00;;;;;;;10.85;89.87;99943.51;124997;1306;98116;-75
2022/11/05 13:28:45;;;;;;;45.90;37.80;;;;;;;10.90;89.87;99947.27;124989;1299;98024;-74
2022/11/05 13:31:58;;;;;;;28.90;22.60;;;;;;;10.88;89.55;99950.48;124980;1301;98802;-73
2022/11/05 13:35:07;;;;;;;28.60;21.20;;;;;;;10.84;89.87;99953.74;125094;1310;98019;-74
2022/11/05 13:42:23;;;;;;;22.70;16.10;;;;;;;10.73;89.88;99966.83;124957;1302;98448;-75
2022/11/05 13:46:00;;;;;;;24.80;17.10;;;;;;;10.74;90.05;99977.38;124840;1296;98063;-72
2022/11/05 13:49:28;;;;;;;32.10;23.30;;;;;;;10.81;89.99;99980.64;125038;1296;98078;-73
2022/11/05 13:52:51;;;;;;;27.30;19.30;;;;;;;10.86;90.04;99989.70;125009;1299;98108;-72
2022/11/05 13:56:13;;;;;;;25.40;18.80;;;;;;;10.89;89.94;99998.80;125008;1297;99221;-74
2022/11/05 13:59:47;;;;;;;24.10;16.10;;;;;;;10.87;89.74;100006.34;125027;1295;99163;-73
2022/11/05 14:02:56;;;;;;;18.50;13.80;;;;;;;10.86;90.10;100009.30;124937;1302;98451;-71
2022/11/05 14:06:05;;;;;;;24.20;17.80;;;;;;;10.88;90.09;100008.02;124926;1305;99106;-74
2022/11/05 14:09:16;;;;;;;21.80;16.80;;;;;;;10.85;89.94;100008.06;124873;1298;98112;-73
2022/11/05 14:12:25;;;;;;;26.20;18.20;;;;;;;10.82;89.98;100002.16;124950;1312;98008;-78
2022/11/05 14:15:32;;;;;;;25.20;19.10;;;;;;;10.70;90.10;100007.70;124957;1289;99053;-75
2022/11/05 14:18:44;;;;;;;26.50;19.30;;;;;;;10.65;90.15;100012.86;125000;1289;98050;-73
2022/11/05 14:21:51;;;;;;;24.30;16.20;;;;;;;10.59;90.08;100015.99;124963;1297;98016;-72
2022/11/05 14:24:57;;;;;;;28.20;20.70;;;;;;;10.57;90.30;100022.42;124934;1304;99143;-76
2022/11/05 14:28:07;;;;;;;27.00;19.90;;;;;;;10.56;90.63;100031.55;124950;1295;98073;-77
2022/11/05 14:31:40;;;;;;;24.60;18.80;;;;;;;10.56;90.27;100034.92;124983;1306;98005;-77
2022/11/05 14:34:49;;;;;;;33.00;22.80;;;;;;;10.56;90.41;100038.98;124981;1296;98147;-77
2022/11/05 14:37:56;;;;;;;27.70;20.70;;;;;;;10.52;90.42;100041.63;124936;1297;98188;-74
2022/11/05 14:41:03;;;;;;;26.40;18.80;;;;;;;10.50;90.66;100046.06;125012;1313;99166;-74
2022/11/05 14:44:10;;;;;;;28.50;20.10;;;;;;;10.43;90.75;100051.39;124934;1297;139063;-74
2022/11/05 14:47:24;;;;;;;29.50;22.00;;;;;;;10.42;90.76;100056.17;124976;1297;99214;-73
2022/11/05 14:50:36;;;;;;;34.30;24.90;;;;;;;10.40;91.04;100060.55;125052;1302;98023;-74
2022/11/05 14:53:41;;;;;;;23.90;18.50;;;;;;;10.32;90.57;100060.85;124945;1297;98151;-74
2022/11/05 14:56:50;;;;;;;26.90;19.20;;;;;;;10.25;90.81;100063.56;125019;1296;98007;-74
2022/11/05 14:59:59;;;;;;;28.80;19.80;;;;;;;10.21;91.29;100066.56;125239;1305;99135;-74
2022/11/05 15:03:25;;;;;;;24.70;18.10;;;;;;;10.18;91.24;100070.02;125079;1296;98068;-77
2022/11/05 15:06:34;;;;;;;33.50;24.30;;;;;;;10.18;91.05;100074.71;125018;1299;99182;-73
2022/11/05 15:09:44;;;;;;;34.70;25.50;;;;;;;10.15;91.54;100080.66;124900;1304;101493;-73
2022/11/05 15:12:54;;;;;;;31.10;21.40;;;;;;;10.09;91.47;100078.28;124951;1299;99264;-75